createdAt,value
2018-11-28T00:00:28.883Z,16.70
2018-11-28T00:02:56.837Z,17.13
2018-11-28T00:05:24.263Z,16.07
2018-11-28T00:07:51.729Z,16.57
2018-11-28T00:10:19.147Z,16.77
2018-11-28T00:12:46.639Z,16.70
2018-11-28T00:15:15.056Z,17.30
2018-11-28T00:17:42.598Z,17.30
2018-11-28T00:20:15.222Z,15.93
2018-11-28T00:22:42.994Z,16.20
2018-11-28T00:25:11.442Z,17.33
2018-11-28T00:27:39.450Z,15.60
2018-11-28T00:30:11.262Z,16.40
2018-11-28T00:32:38.792Z,16.07
2018-11-28T00:35:07.678Z,14.90
2018-11-28T00:37:35.124Z,16.30
2018-11-28T00:40:02.556Z,15.20
2018-11-28T00:42:31.201Z,14.83
2018-11-28T00:44:58.912Z,15.30
2018-11-28T00:47:26.356Z,16.03
2018-11-28T00:49:53.816Z,16.43
2018-11-28T00:52:21.264Z,16.00
2018-11-28T00:54:48.708Z,16.53
2018-11-28T00:57:16.104Z,15.40
2018-11-28T00:59:43.583Z,15.10
2018-11-28T01:02:11.181Z,15.40
2018-11-28T01:04:38.625Z,15.87
2018-11-28T01:07:06.433Z,14.90
2018-11-28T01:09:33.845Z,14.50
2018-11-28T01:12:01.287Z,15.20
2018-11-28T01:14:28.736Z,15.23
2018-11-28T01:16:56.187Z,14.23
2018-11-28T01:19:23.683Z,14.97
2018-11-28T01:21:51.137Z,15.77
2018-11-28T01:24:18.530Z,15.43
2018-11-28T01:26:46.914Z,16.30
2018-11-28T01:29:14.320Z,16.87
2018-11-28T01:31:41.789Z,17.13
2018-11-28T01:34:09.184Z,16.70
2018-11-28T01:36:37.386Z,15.97
2018-11-28T01:39:05.773Z,16.33
2018-11-28T01:41:33.199Z,15.50
2018-11-28T01:44:00.563Z,16.53
2018-11-28T01:46:28.099Z,15.67
2018-11-28T01:48:56.153Z,15.47
2018-11-28T01:51:23.568Z,15.90
2018-11-28T01:53:50.952Z,15.23
2018-11-28T01:56:18.479Z,15.07
2018-11-28T01:58:46.284Z,16.27
2018-11-28T02:01:13.714Z,16.40
2018-11-28T02:03:41.114Z,16.20
2018-11-28T02:06:08.548Z,15.63
2018-11-28T02:08:35.909Z,15.67
2018-11-28T02:11:03.347Z,15.90
2018-11-28T02:13:30.778Z,16.43
2018-11-28T02:15:58.164Z,15.83
2018-11-28T02:18:25.868Z,16.83
2018-11-28T02:20:53.277Z,15.90
2018-11-28T02:23:21.270Z,16.43
2018-11-28T02:25:48.702Z,15.87
2018-11-28T02:28:16.119Z,15.63
2018-11-28T02:30:43.518Z,16.30
2018-11-28T02:33:11.008Z,15.10
2018-11-28T02:35:38.385Z,14.80
2018-11-28T02:38:05.843Z,14.63
2018-11-28T02:40:33.233Z,15.67
2018-11-28T02:43:00.644Z,15.77
2018-11-28T02:45:28.200Z,14.57
2018-11-28T02:47:55.645Z,15.10
2018-11-28T02:50:23.030Z,14.03
2018-11-28T02:52:50.475Z,13.73
2018-11-28T02:55:18.278Z,14.70
2018-11-28T02:57:47.653Z,14.30
2018-11-28T03:00:18.178Z,14.47
2018-11-28T03:02:45.578Z,13.53
2018-11-28T03:05:13.532Z,14.53
2018-11-28T03:07:40.925Z,15.07
2018-11-28T03:10:11.110Z,14.67
2018-11-28T03:12:38.514Z,15.20
2018-11-28T03:15:07.735Z,14.33
2018-11-28T03:17:35.114Z,14.20
2018-11-28T03:20:02.538Z,13.90
2018-11-28T03:22:29.968Z,13.87
2018-11-28T03:24:57.429Z,14.63
2018-11-28T03:27:24.839Z,14.20
2018-11-28T03:29:52.743Z,13.77
2018-11-28T03:32:20.181Z,14.00
2018-11-28T03:34:47.564Z,13.07
2018-11-28T03:37:15.070Z,13.57
2018-11-28T03:39:42.466Z,14.40
2018-11-28T03:42:09.921Z,14.30
2018-11-28T03:44:37.328Z,14.50
2018-11-28T03:47:04.793Z,15.03
2018-11-28T03:49:32.250Z,15.23
2018-11-28T03:51:59.861Z,15.57
2018-11-28T03:54:27.281Z,15.10
2018-11-28T03:56:54.857Z,16.43
2018-11-28T03:59:22.254Z,15.30
2018-11-28T04:01:49.696Z,14.90
2018-11-28T04:04:17.088Z,15.80
2018-11-28T04:06:45.064Z,15.50
2018-11-28T04:09:12.505Z,15.80
2018-11-28T04:11:39.883Z,15.83
2018-11-28T04:14:07.550Z,15.23
2018-11-28T04:16:34.926Z,16.20
2018-11-28T04:19:04.757Z,16.13
2018-11-28T04:21:32.505Z,16.43
2018-11-28T04:24:00.275Z,15.80
2018-11-28T04:26:28.322Z,16.07
2018-11-28T04:28:55.749Z,15.80
2018-11-28T04:31:23.231Z,15.67
2018-11-28T04:33:50.832Z,16.07
2018-11-28T04:36:18.790Z,15.57
2018-11-28T04:38:46.382Z,15.50
2018-11-28T04:41:13.813Z,15.80
2018-11-28T04:43:41.286Z,15.93
2018-11-28T04:46:08.691Z,15.60
2018-11-28T04:48:36.131Z,14.67
2018-11-28T04:51:03.565Z,14.70
2018-11-28T04:53:31.027Z,16.17
2018-11-28T04:55:58.496Z,15.57
2018-11-28T04:58:25.925Z,15.80
2018-11-28T05:00:53.329Z,16.17
2018-11-28T05:03:20.726Z,14.23
2018-11-28T05:05:48.259Z,15.93
2018-11-28T05:08:15.739Z,14.70
2018-11-28T05:10:43.140Z,20.80
2018-11-28T05:13:10.533Z,25.07
2018-11-28T05:15:37.979Z,17.70
2018-11-28T05:18:05.462Z,16.47
2018-11-28T05:20:33.914Z,17.37
2018-11-28T05:23:01.821Z,18.40
2018-11-28T05:25:29.339Z,19.73
2018-11-28T05:27:57.896Z,18.37
2018-11-28T05:30:27.513Z,16.00
2018-11-28T05:32:54.935Z,15.00
2018-11-28T05:35:25.266Z,15.93
2018-11-28T05:37:53.072Z,16.30
2018-11-28T05:40:21.795Z,15.40
2018-11-28T05:42:49.365Z,17.27
2018-11-28T05:45:17.841Z,16.07
2018-11-28T05:47:45.316Z,15.53
2018-11-28T05:50:14.256Z,15.70
2018-11-28T05:52:41.679Z,16.20
2018-11-28T05:55:10.460Z,15.33
2018-11-28T05:57:37.884Z,15.83
2018-11-28T06:00:11.741Z,15.37
2018-11-28T06:02:39.201Z,16.00
2018-11-28T06:05:08.066Z,15.20
2018-11-28T06:07:35.536Z,15.90
2018-11-28T06:10:03.086Z,35.53
2018-11-28T06:12:30.495Z,45.50
2018-11-28T06:14:58.015Z,31.10
2018-11-28T06:17:25.560Z,23.97
2018-11-28T06:19:52.974Z,24.23
2018-11-28T06:22:21.236Z,20.47
2018-11-28T06:24:48.650Z,23.13
2018-11-28T06:27:17.028Z,20.80
2018-11-28T06:29:44.461Z,21.80
2018-11-28T06:32:11.859Z,19.17
2018-11-28T06:34:40.527Z,19.37
2018-11-28T06:37:07.935Z,18.80
2018-11-28T06:39:35.377Z,17.37
2018-11-28T06:42:02.866Z,16.03
2018-11-28T06:44:30.296Z,15.40
2018-11-28T06:46:57.736Z,15.93
2018-11-28T06:49:25.155Z,17.27
2018-11-28T06:51:53.227Z,18.00
2018-11-28T06:54:21.245Z,17.37
2018-11-28T06:56:48.631Z,18.70
2018-11-28T06:59:16.047Z,19.00
2018-11-28T07:01:43.502Z,17.90
2018-11-28T07:04:10.920Z,17.77
2018-11-28T07:06:38.432Z,16.30
2018-11-28T07:09:07.325Z,16.30
2018-11-28T07:11:35.399Z,18.03
2018-11-28T07:14:02.820Z,18.37
2018-11-28T07:16:30.297Z,17.77
2018-11-28T07:19:13.194Z,16.97
2018-11-28T07:21:40.717Z,16.23
2018-11-28T07:24:08.256Z,16.40
2018-11-28T07:26:36.314Z,18.70
2018-11-28T07:29:04.087Z,17.27
2018-11-28T07:31:31.561Z,17.10
2018-11-28T07:33:58.976Z,17.27
2018-11-28T07:36:26.565Z,17.70
2018-11-28T07:38:54.252Z,16.03
2018-11-28T07:41:22.257Z,16.20
2018-11-28T07:43:50.170Z,17.30
2018-11-28T07:46:17.571Z,17.27
2018-11-28T07:48:45.041Z,17.90
2018-11-28T07:51:12.607Z,18.53
2018-11-28T07:53:40.141Z,18.57
2018-11-28T07:56:07.622Z,17.90
2018-11-28T07:58:35.062Z,19.90
2018-11-28T08:01:02.656Z,19.77
2018-11-28T08:03:30.730Z,18.60
2018-11-28T08:05:58.696Z,19.20
2018-11-28T08:08:26.151Z,18.60
2018-11-28T08:10:54.266Z,19.27
2018-11-28T08:13:22.407Z,20.33
2018-11-28T08:15:49.956Z,18.87
2018-11-28T08:18:17.366Z,18.77
2018-11-28T08:20:44.821Z,18.57
2018-11-28T08:23:12.253Z,19.33
2018-11-28T08:25:39.707Z,18.43
2018-11-28T08:28:07.742Z,18.30
2018-11-28T08:30:35.092Z,17.43
2018-11-28T08:33:02.499Z,17.67
2018-11-28T08:35:29.987Z,17.53
2018-11-28T08:37:57.466Z,17.97
2018-11-28T08:40:25.975Z,17.97
2018-11-28T08:42:54.687Z,17.80
2018-11-28T08:45:22.241Z,17.87
2018-11-28T08:47:51.076Z,20.13
2018-11-28T08:50:20.446Z,16.87
2018-11-28T08:52:47.922Z,17.43
2018-11-28T08:55:15.454Z,14.00
2018-11-28T08:57:43.439Z,12.90
2018-11-28T09:00:14.163Z,14.27
2018-11-28T09:02:41.642Z,14.60
2018-11-28T09:05:10.373Z,16.03
2018-11-28T09:07:38.037Z,18.70
2018-11-28T09:10:21.291Z,17.53
2018-11-28T09:12:49.645Z,18.10
2018-11-28T09:15:22.407Z,16.53
2018-11-28T09:17:50.062Z,17.13
2018-11-28T09:20:17.629Z,18.47
2018-11-28T09:22:45.068Z,17.43
2018-11-28T09:25:13.693Z,17.43
2018-11-28T09:27:41.752Z,16.80
2018-11-28T09:30:14.368Z,16.23
2018-11-28T09:32:41.784Z,17.10
2018-11-28T09:35:10.207Z,16.47
2018-11-28T09:37:37.622Z,14.53
2018-11-28T09:40:09.491Z,16.67
2018-11-28T09:42:37.597Z,17.50
2018-11-28T09:45:05.947Z,17.90
2018-11-28T09:47:33.382Z,18.23
2018-11-28T09:50:00.934Z,15.27
2018-11-28T09:52:29.212Z,16.47
2018-11-28T09:54:56.626Z,16.27
2018-11-28T09:57:24.026Z,15.80
2018-11-28T09:59:51.542Z,17.43
2018-11-28T10:02:19.174Z,15.47
2018-11-28T10:04:46.577Z,15.77
2018-11-28T10:07:14.059Z,14.17
2018-11-28T10:09:41.947Z,15.10
2018-11-28T10:12:09.410Z,15.33
2018-11-28T10:14:36.812Z,15.67
2018-11-28T10:17:04.565Z,17.27
2018-11-28T10:19:31.999Z,16.57
2018-11-28T10:21:59.502Z,16.97
2018-11-28T10:24:26.953Z,16.37
2018-11-28T10:26:54.438Z,14.93
2018-11-28T10:29:22.363Z,15.50
2018-11-28T10:31:50.432Z,15.57
2018-11-28T10:34:17.834Z,14.23
2018-11-28T10:36:45.379Z,14.50
2018-11-28T10:39:12.809Z,15.53
2018-11-28T10:41:40.245Z,14.30
2018-11-28T10:44:08.459Z,14.43
2018-11-28T10:46:35.955Z,16.77
2018-11-28T10:49:04.300Z,32.57
2018-11-28T10:51:31.754Z,35.57
2018-11-28T10:53:59.164Z,22.80
2018-11-28T10:56:26.666Z,16.13
2018-11-28T10:58:54.081Z,16.47
2018-11-28T11:01:25.103Z,14.97
2018-11-28T11:04:00.177Z,14.83
2018-11-28T11:06:33.098Z,15.13
2018-11-28T11:09:06.128Z,14.57
2018-11-28T11:11:39.181Z,13.87
2018-11-28T11:14:12.218Z,14.27
2018-11-28T11:16:39.638Z,15.13
2018-11-28T11:19:07.233Z,14.60
2018-11-28T11:21:35.233Z,13.47
2018-11-28T11:24:02.659Z,14.13
2018-11-28T11:26:30.030Z,14.77
2018-11-28T11:28:57.495Z,13.23
2018-11-28T11:31:25.069Z,12.40
2018-11-28T11:33:52.593Z,12.47
2018-11-28T11:36:20.709Z,12.73
2018-11-28T11:38:48.144Z,11.53
2018-11-28T11:41:15.619Z,11.33
2018-11-28T11:43:43.075Z,12.47
2018-11-28T11:46:10.549Z,11.60
2018-11-28T11:48:37.947Z,10.67
2018-11-28T11:51:05.685Z,11.57
2018-11-28T11:53:33.056Z,11.60
2018-11-28T11:56:00.478Z,11.10
2018-11-28T11:58:27.905Z,9.90
2018-11-28T12:00:55.350Z,10.43
2018-11-28T12:03:22.795Z,10.23
2018-11-28T12:05:53.505Z,9.13
2018-11-28T12:08:21.435Z,9.67
2018-11-28T12:10:48.932Z,8.73
2018-11-28T12:13:16.355Z,8.97
2018-11-28T12:15:43.815Z,9.00
2018-11-28T12:18:11.253Z,8.97
2018-11-28T12:20:53.464Z,9.77
2018-11-28T12:23:20.915Z,8.97
2018-11-28T12:25:48.354Z,9.50
2018-11-28T12:28:15.856Z,8.67
2018-11-28T12:30:43.324Z,10.10
2018-11-28T12:33:10.756Z,9.13
2018-11-28T12:35:38.337Z,9.53
2018-11-28T12:38:06.132Z,9.17
2018-11-28T12:40:34.373Z,8.80
2018-11-28T12:43:02.415Z,9.23
2018-11-28T12:45:29.898Z,9.33
2018-11-28T12:47:57.467Z,9.47
2018-11-28T12:50:26.133Z,8.50
2018-11-28T12:52:54.889Z,9.00
2018-11-28T12:55:22.681Z,9.20
2018-11-28T12:57:50.875Z,8.57
2018-11-28T13:00:20.528Z,8.97
2018-11-28T13:02:48.031Z,8.77
2018-11-28T13:05:19.522Z,9.03
2018-11-28T13:07:46.994Z,8.83
2018-11-28T13:10:26.218Z,9.00
2018-11-28T13:12:53.999Z,9.43
2018-11-28T13:15:22.252Z,9.47
2018-11-28T13:17:49.731Z,9.67
2018-11-28T13:20:18.151Z,9.67
2018-11-28T13:22:46.504Z,9.73
2018-11-28T13:25:16.989Z,9.67
2018-11-28T13:27:44.481Z,9.13
2018-11-28T13:30:16.050Z,9.40
2018-11-28T13:32:43.992Z,10.43
2018-11-28T13:35:12.450Z,10.60
2018-11-28T13:37:40.004Z,9.93
2018-11-28T13:40:09.932Z,9.93
2018-11-28T13:42:37.351Z,10.00
2018-11-28T13:45:09.009Z,10.23
2018-11-28T13:47:36.470Z,10.13
2018-11-28T13:50:04.744Z,9.47
2018-11-28T13:52:32.150Z,10.40
2018-11-28T13:57:27.150Z,10.60
2018-11-28T13:59:54.587Z,9.40
2018-11-28T14:02:22.020Z,9.77
2018-11-28T14:04:49.430Z,10.50
2018-11-28T14:07:16.992Z,10.90
2018-11-28T14:09:44.416Z,10.97
2018-11-28T14:12:11.933Z,10.47
2018-11-28T14:14:40.501Z,11.77
2018-11-28T14:17:06.830Z,11.23
2018-11-28T14:19:34.233Z,11.40
2018-11-28T14:22:01.742Z,12.07
2018-11-28T14:24:29.260Z,12.57
2018-11-28T14:26:56.770Z,11.30
2018-11-28T14:29:24.225Z,12.30
2018-11-28T14:31:51.685Z,11.50
2018-11-28T14:34:19.145Z,11.63
2018-11-28T14:36:46.618Z,12.73
2018-11-28T14:39:14.047Z,19.20
2018-11-28T14:41:41.495Z,29.60
2018-11-28T14:44:08.935Z,14.83
2018-11-28T14:46:36.354Z,14.03
2018-11-28T14:49:03.910Z,14.50
2018-11-28T14:51:31.370Z,23.83
2018-11-28T14:53:58.855Z,30.27
2018-11-28T14:56:26.284Z,22.67
2018-11-28T14:58:53.710Z,18.23
2018-11-28T15:01:21.116Z,20.23
2018-11-28T15:03:48.562Z,19.97
2018-11-28T15:06:24.540Z,18.07
2018-11-28T15:08:52.103Z,16.37
2018-11-28T15:11:19.500Z,16.10
2018-11-28T15:13:46.994Z,18.77
2018-11-28T15:16:14.456Z,20.07
2018-11-28T15:18:41.958Z,19.07
2018-11-28T15:21:10.330Z,18.60
2018-11-28T15:23:38.294Z,17.67
2018-11-28T15:26:05.923Z,18.87
2018-11-28T15:28:33.370Z,18.13
2018-11-28T15:31:00.888Z,19.53
2018-11-28T15:33:28.371Z,17.87
2018-11-28T15:35:55.871Z,18.07
2018-11-28T15:38:23.340Z,18.30
2018-11-28T15:40:50.956Z,20.07
2018-11-28T15:43:18.413Z,19.50
2018-11-28T15:45:45.861Z,19.93
2018-11-28T15:48:13.315Z,20.90
2018-11-28T15:50:40.796Z,21.50
2018-11-28T15:53:08.290Z,20.80
2018-11-28T15:55:35.777Z,20.60
2018-11-28T15:58:03.238Z,21.37
2018-11-28T16:00:30.701Z,19.87
2018-11-28T16:02:58.186Z,20.13
2018-11-28T16:05:25.622Z,20.97
2018-11-28T16:07:53.095Z,23.67
2018-11-28T16:10:26.222Z,18.07
2018-11-28T16:12:53.666Z,18.73
2018-11-28T16:15:23.656Z,18.83
2018-11-28T16:17:51.176Z,18.07
2018-11-28T16:20:18.660Z,17.90
2018-11-28T16:22:46.132Z,18.10
2018-11-28T16:25:13.716Z,19.77
2018-11-28T16:27:41.611Z,33.77
2018-11-28T16:30:14.709Z,20.10
2018-11-28T16:32:43.134Z,17.97
2018-11-28T16:35:16.557Z,18.40
2018-11-28T16:37:44.173Z,18.43
2018-11-28T16:40:13.403Z,19.97
2018-11-28T16:42:40.933Z,16.40
2018-11-28T16:45:12.937Z,20.20
2018-11-28T16:47:40.368Z,26.00
2018-11-28T16:50:08.752Z,19.53
2018-11-28T16:52:36.325Z,20.73
2018-11-28T16:55:03.951Z,17.87
2018-11-28T16:57:31.467Z,19.30
2018-11-28T16:59:58.985Z,20.03
2018-11-28T17:02:26.447Z,19.07
2018-11-28T17:04:53.935Z,20.17
2018-11-28T17:07:21.378Z,16.57
2018-11-28T17:09:48.894Z,21.47
2018-11-28T17:12:16.456Z,18.07
2018-11-28T17:14:43.972Z,20.73
2018-11-28T17:17:11.455Z,16.67
2018-11-28T17:19:38.967Z,16.93
2018-11-28T17:22:06.437Z,21.97
2018-11-28T17:24:33.877Z,25.20
2018-11-28T17:27:01.391Z,21.30
2018-11-28T17:29:28.884Z,23.03
2018-11-28T17:31:56.346Z,20.70
2018-11-28T17:34:23.847Z,19.73
2018-11-28T17:36:51.276Z,24.23
2018-11-28T17:39:18.727Z,18.23
2018-11-28T17:41:46.250Z,20.97
2018-11-28T17:44:13.660Z,19.30
2018-11-28T17:46:41.158Z,24.00
2018-11-28T17:49:08.636Z,19.53
2018-11-28T17:51:36.174Z,20.00
2018-11-28T17:54:03.600Z,17.77
2018-11-28T17:56:31.164Z,17.83
2018-11-28T17:58:58.580Z,18.30
2018-11-28T18:01:26.725Z,22.50
2018-11-28T18:03:54.235Z,23.13
2018-11-28T18:06:21.751Z,20.30
2018-11-28T18:08:49.227Z,17.70
2018-11-28T18:11:16.710Z,20.67
2018-11-28T18:13:44.399Z,16.83
2018-11-28T18:16:12.018Z,19.10
2018-11-28T18:18:39.438Z,17.97
2018-11-28T18:21:06.934Z,26.40
2018-11-28T18:23:34.496Z,35.97
2018-11-28T18:26:04.540Z,47.07
2018-11-28T18:28:31.974Z,32.47
2018-11-28T18:30:59.425Z,48.73
2018-11-28T18:33:26.885Z,31.87
2018-11-28T18:35:54.382Z,29.83
2018-11-28T18:38:21.954Z,42.60
2018-11-28T18:40:49.476Z,29.37
2018-11-28T18:43:16.925Z,38.30
2018-11-28T18:45:46.312Z,24.40
2018-11-28T18:48:13.778Z,22.47
2018-11-28T18:50:41.303Z,25.63
2018-11-28T18:53:08.782Z,40.87
2018-11-28T18:55:36.269Z,40.40
2018-11-28T18:58:03.728Z,40.50
2018-11-28T19:00:31.259Z,25.93
2018-11-28T19:02:58.762Z,33.37
2018-11-28T19:05:26.292Z,27.33
2018-11-28T19:07:53.764Z,21.87
2018-11-28T19:10:26.353Z,35.83
2018-11-28T19:12:50.230Z,20.80
2018-11-28T19:15:20.834Z,40.70
2018-11-28T19:17:48.605Z,20.33
2018-11-28T19:20:18.006Z,18.37
2018-11-28T19:22:46.165Z,18.13
2018-11-28T19:25:36.255Z,18.30
2018-11-28T19:28:13.763Z,17.03
2018-11-28T19:30:41.463Z,22.67
2018-11-28T19:33:10.087Z,18.30
2018-11-28T19:35:37.616Z,16.50
2018-11-28T19:38:06.838Z,17.13
2018-11-28T19:41:08.400Z,15.13
2018-11-28T19:43:35.855Z,16.10
2018-11-28T19:46:03.365Z,17.10
2018-11-28T19:48:30.864Z,17.87
2018-11-28T19:50:59.278Z,15.93
2018-11-28T19:53:26.755Z,22.13
2018-11-28T19:55:54.365Z,18.40
2018-11-28T19:58:21.821Z,19.53
2018-11-28T20:00:49.277Z,17.93
2018-11-28T20:03:16.836Z,17.20
2018-11-28T20:05:44.361Z,19.87
2018-11-28T20:08:12.131Z,18.80
2018-11-28T20:10:39.642Z,20.20
2018-11-28T20:13:08.413Z,17.00
2018-11-28T20:15:35.921Z,19.60
2018-11-28T20:18:03.370Z,17.37
2018-11-28T20:20:31.196Z,19.60
2018-11-28T20:22:58.676Z,18.70
2018-11-28T20:25:26.222Z,17.17
2018-11-28T20:27:55.861Z,20.53
2018-11-28T20:30:28.007Z,16.13
2018-11-28T20:32:55.560Z,20.17
2018-11-28T20:35:23.128Z,30.47
2018-11-28T20:37:50.636Z,28.57
2018-11-28T20:40:18.248Z,18.70
2018-11-28T20:42:48.276Z,19.80
2018-11-28T20:45:15.885Z,20.93
2018-11-28T20:47:43.337Z,22.03
2018-11-28T20:50:16.027Z,18.87
2018-11-28T20:52:45.444Z,18.27
2018-11-28T20:55:13.207Z,17.50
2018-11-28T20:57:41.485Z,16.90
2018-11-28T21:00:11.615Z,17.33
2018-11-28T21:02:39.079Z,16.93
2018-11-28T21:05:06.641Z,16.97
2018-11-28T21:07:34.076Z,17.50
2018-11-28T21:10:07.215Z,15.90
2018-11-28T21:12:34.653Z,16.63
2018-11-28T21:15:02.221Z,16.77
2018-11-28T21:17:29.787Z,16.60
2018-11-28T21:19:57.304Z,14.87
2018-11-28T21:22:24.777Z,16.10
2018-11-28T21:24:52.252Z,15.33
2018-11-28T21:27:19.711Z,16.77
2018-11-28T21:29:47.417Z,16.13
2018-11-28T21:32:14.872Z,15.93
2018-11-28T21:34:42.306Z,15.57
2018-11-28T21:37:09.836Z,15.90
2018-11-28T21:39:37.263Z,16.03
2018-11-28T21:42:04.946Z,15.73
2018-11-28T21:44:32.336Z,15.53
2018-11-28T21:46:59.757Z,15.70
2018-11-28T21:49:27.181Z,15.83
2018-11-28T21:51:54.631Z,15.57
2018-11-28T21:54:22.066Z,16.33
2018-11-28T21:56:49.533Z,15.00
2018-11-28T21:59:17.259Z,16.90
2018-11-28T22:01:44.896Z,16.03
2018-11-28T22:04:12.334Z,15.33
2018-11-28T22:06:39.757Z,15.30
2018-11-28T22:09:09.668Z,15.80
2018-11-28T22:11:37.208Z,15.40
2018-11-28T22:14:05.331Z,15.13
2018-11-28T22:16:32.723Z,16.20
2018-11-28T22:19:00.677Z,15.70
2018-11-28T22:21:28.636Z,16.17
2018-11-28T22:23:57.012Z,15.70
2018-11-28T22:26:24.538Z,14.73
2018-11-28T22:28:52.042Z,15.43
2018-11-28T22:31:20.176Z,14.87
2018-11-28T22:33:47.662Z,16.13
2018-11-28T22:36:15.046Z,16.27
2018-11-28T22:38:42.966Z,16.40
2018-11-28T22:41:10.740Z,15.43
2018-11-28T22:43:38.229Z,15.97
2018-11-28T22:46:06.000Z,16.63
2018-11-28T22:48:33.382Z,15.40
2018-11-28T22:51:00.817Z,15.50
2018-11-28T22:53:28.200Z,16.27
2018-11-28T22:55:55.699Z,14.63
2018-11-28T22:58:23.092Z,15.63
2018-11-28T23:00:56.165Z,16.57
2018-11-28T23:03:23.588Z,16.80
2018-11-28T23:05:51.579Z,16.17
2018-11-28T23:08:19.922Z,16.77
2018-11-28T23:10:47.813Z,16.43
2018-11-28T23:13:16.596Z,16.00
2018-11-28T23:15:44.080Z,16.53
2018-11-28T23:18:11.738Z,16.33
2018-11-28T23:20:39.158Z,16.87
2018-11-28T23:23:07.604Z,17.00
2018-11-28T23:25:35.037Z,16.23
2018-11-28T23:28:02.532Z,15.80
2018-11-28T23:30:30.041Z,16.90
2018-11-28T23:32:57.523Z,17.50
2018-11-28T23:35:25.166Z,18.70
2018-11-28T23:38:02.107Z,16.13
2018-11-28T23:40:29.519Z,17.60
2018-11-28T23:42:56.972Z,18.40
2018-11-28T23:45:24.932Z,16.30
2018-11-28T23:47:52.363Z,17.97
2018-11-28T23:50:21.647Z,17.83
2018-11-28T23:52:49.647Z,17.40
2018-11-28T23:55:19.842Z,18.57
2018-11-28T23:57:48.338Z,17.20
